createdAt,value
2023-05-10T00:01:50.498Z,65.40
2023-05-10T00:04:20.632Z,65.50
2023-05-10T00:06:49.246Z,65.60
2023-05-10T00:09:17.999Z,65.90
2023-05-10T00:11:48.594Z,65.90
2023-05-10T00:14:17.277Z,66.00
2023-05-10T00:16:46.046Z,66.40
2023-05-10T00:19:14.772Z,66.40
2023-05-10T00:21:44.724Z,66.60
2023-05-10T00:24:13.250Z,66.40
2023-05-10T00:26:43.339Z,66.90
2023-05-10T00:29:12.136Z,67.00
2023-05-10T00:31:40.480Z,67.10
2023-05-10T00:34:09.062Z,67.40
2023-05-10T00:36:37.400Z,67.40
2023-05-10T00:39:07.703Z,67.60
2023-05-10T00:41:36.056Z,68.00
2023-05-10T00:44:06.697Z,68.90
2023-05-10T00:46:35.209Z,68.60
2023-05-10T00:49:03.797Z,69.10
2023-05-10T00:51:34.713Z,68.60
2023-05-10T00:54:03.184Z,68.70
2023-05-10T00:56:33.020Z,68.90
2023-05-10T00:59:01.835Z,69.10
2023-05-10T01:01:30.916Z,69.50
2023-05-10T01:03:59.768Z,70.20
2023-05-10T01:06:28.815Z,70.10
2023-05-10T01:08:57.570Z,70.10
2023-05-10T01:11:26.290Z,70.40
2023-05-10T01:13:59.848Z,70.90
2023-05-10T01:16:31.892Z,70.90
2023-05-10T01:19:02.639Z,71.20
2023-05-10T01:21:35.325Z,71.50
2023-05-10T01:24:39.527Z,71.50
2023-05-10T01:27:33.257Z,71.60
2023-05-10T01:30:32.745Z,71.70
2023-05-10T01:33:04.038Z,72.40
2023-05-10T01:35:39.691Z,72.60
2023-05-10T01:38:16.222Z,72.90
2023-05-10T01:40:50.695Z,73.20
2023-05-10T01:43:24.074Z,72.90
2023-05-10T01:46:01.635Z,74.00
2023-05-10T01:48:34.708Z,73.30
2023-05-10T01:51:03.297Z,73.50
2023-05-10T01:53:32.147Z,73.70
2023-05-10T01:56:01.717Z,73.80
2023-05-10T01:58:32.708Z,74.00
2023-05-10T02:01:03.541Z,74.00
2023-05-10T02:03:34.514Z,74.40
2023-05-10T02:06:03.633Z,74.90
2023-05-10T02:08:32.308Z,75.20
2023-05-10T02:11:00.873Z,75.40
2023-05-10T02:13:31.992Z,75.70
2023-05-10T02:16:01.377Z,75.70
2023-05-10T02:18:31.017Z,75.70
2023-05-10T02:21:01.248Z,75.90
2023-05-10T02:23:30.485Z,76.20
2023-05-10T02:25:59.301Z,76.30
2023-05-10T02:28:28.258Z,76.30
2023-05-10T02:30:57.707Z,76.30
2023-05-10T02:33:28.694Z,76.60
2023-05-10T02:35:57.980Z,76.90
2023-05-10T02:38:28.094Z,77.30
2023-05-10T02:40:59.406Z,77.50
2023-05-10T02:43:27.813Z,77.60
2023-05-10T02:45:56.539Z,77.40
2023-05-10T02:48:27.318Z,77.70
2023-05-10T02:51:02.902Z,77.80
2023-05-10T02:53:33.979Z,77.90
2023-05-10T02:56:08.141Z,78.00
2023-05-10T02:58:36.564Z,78.40
2023-05-10T03:01:05.321Z,78.30
2023-05-10T03:03:33.689Z,78.30
2023-05-10T03:06:02.160Z,78.40
2023-05-10T03:08:34.387Z,78.40
2023-05-10T03:11:30.542Z,78.60
2023-05-10T03:14:12.370Z,79.00
2023-05-10T03:16:47.977Z,79.20
2023-05-10T03:19:19.844Z,79.50
2023-05-10T03:21:53.244Z,79.60
2023-05-10T03:24:28.068Z,80.20
2023-05-10T03:26:58.810Z,80.00
2023-05-10T03:29:28.273Z,80.40
2023-05-10T03:31:56.750Z,80.40
2023-05-10T03:34:26.081Z,80.70
2023-05-10T03:36:54.596Z,80.90
2023-05-10T03:39:23.007Z,81.30
2023-05-10T03:41:57.271Z,81.30
2023-05-10T03:44:25.620Z,81.60
2023-05-10T03:46:55.322Z,81.80
2023-05-10T03:49:26.217Z,82.10
2023-05-10T03:51:54.748Z,82.60
2023-05-10T03:54:25.195Z,82.60
2023-05-10T03:56:53.609Z,83.30
2023-05-10T03:59:24.948Z,83.70
2023-05-10T04:01:54.512Z,83.80
2023-05-10T04:04:22.974Z,84.10
2023-05-10T04:06:52.335Z,84.30
2023-05-10T04:09:21.296Z,84.30
2023-05-10T04:11:49.640Z,84.70
2023-05-10T04:14:18.078Z,85.10
2023-05-10T04:16:50.509Z,85.10
2023-05-10T04:19:18.981Z,84.90
2023-05-10T04:21:47.321Z,84.90
2023-05-10T04:24:17.840Z,85.10
2023-05-10T04:26:48.698Z,84.70
2023-05-10T04:29:17.056Z,84.50
2023-05-10T04:31:45.438Z,84.40
2023-05-10T04:34:15.184Z,83.90
2023-05-10T04:36:43.518Z,84.00
2023-05-10T04:39:11.894Z,83.10
2023-05-10T04:41:40.426Z,82.80
2023-05-10T04:44:08.838Z,83.00
2023-05-10T04:46:37.345Z,83.00
2023-05-10T04:49:05.752Z,82.70
2023-05-10T04:51:35.544Z,82.90
2023-05-10T04:54:06.570Z,82.60
2023-05-10T04:56:35.258Z,82.70
2023-05-10T04:59:05.905Z,82.60
2023-05-10T05:01:34.288Z,82.20
2023-05-10T05:04:02.704Z,81.90
2023-05-10T05:06:31.169Z,81.70
2023-05-10T05:09:01.075Z,81.30
2023-05-10T05:11:29.416Z,80.60
2023-05-10T05:14:00.078Z,80.30
2023-05-10T05:16:28.561Z,79.00
2023-05-10T05:18:57.452Z,78.70
2023-05-10T05:21:27.863Z,77.80
2023-05-10T05:23:56.305Z,77.50
2023-05-10T05:26:26.405Z,77.30
2023-05-10T05:28:57.279Z,77.20
2023-05-10T05:31:26.087Z,76.10
2023-05-10T05:33:54.896Z,75.30
2023-05-10T05:36:23.894Z,73.80
2023-05-10T05:38:52.550Z,73.20
2023-05-10T05:41:21.121Z,71.70
2023-05-10T05:43:52.339Z,71.60
2023-05-10T05:46:23.308Z,71.00
2023-05-10T05:48:52.024Z,71.50
2023-05-10T05:51:21.172Z,70.50
2023-05-10T05:53:49.787Z,69.30
2023-05-10T05:56:25.074Z,69.30
2023-05-10T05:58:57.373Z,67.90
2023-05-10T06:01:25.861Z,68.00
2023-05-10T06:03:54.526Z,67.80
2023-05-10T06:06:23.290Z,67.00
2023-05-10T06:08:52.393Z,66.60
2023-05-10T06:11:22.084Z,66.00
2023-05-10T06:13:50.733Z,65.60
2023-05-10T06:16:20.932Z,64.80
2023-05-10T06:18:49.508Z,63.90
2023-05-10T06:21:18.242Z,64.10
2023-05-10T06:23:46.890Z,64.50
2023-05-10T06:26:15.686Z,64.10
2023-05-10T06:28:44.338Z,63.50
2023-05-10T06:31:13.598Z,62.80
2023-05-10T06:33:43.642Z,63.00
2023-05-10T06:36:12.232Z,62.60
2023-05-10T06:38:40.919Z,62.70
2023-05-10T06:41:09.495Z,61.30
2023-05-10T06:43:42.249Z,60.50
2023-05-10T06:46:11.086Z,60.40
2023-05-10T06:48:39.692Z,59.90
2023-05-10T06:51:09.766Z,60.00
2023-05-10T06:53:49.531Z,59.70
2023-05-10T06:56:18.102Z,59.00
2023-05-10T06:58:46.770Z,59.60
2023-05-10T07:01:18.360Z,60.00
2023-05-10T07:03:47.197Z,58.60
2023-05-10T07:06:29.228Z,58.30
2023-05-10T07:09:01.365Z,57.50
2023-05-10T07:11:30.281Z,58.20
2023-05-10T07:13:58.807Z,58.30
2023-05-10T07:16:27.593Z,57.80
2023-05-10T07:18:56.555Z,57.20
2023-05-10T07:21:29.666Z,57.10
2023-05-10T07:23:58.276Z,56.80
2023-05-10T07:26:26.824Z,56.60
2023-05-10T07:28:55.355Z,57.10
2023-05-10T07:31:23.922Z,56.10
2023-05-10T07:33:52.457Z,56.30
2023-05-10T07:36:23.616Z,57.70
2023-05-10T07:38:53.675Z,57.10
2023-05-10T07:41:23.510Z,56.20
2023-05-10T07:43:52.101Z,56.20
2023-05-10T07:46:21.710Z,55.50
2023-05-10T07:48:50.367Z,54.80
2023-05-10T07:51:18.939Z,54.90
2023-05-10T07:53:47.520Z,54.60
2023-05-10T07:56:30.630Z,54.80
2023-05-10T07:59:02.050Z,54.80
2023-05-10T08:01:34.420Z,54.10
2023-05-10T08:04:03.628Z,53.30
2023-05-10T08:06:32.329Z,52.80
2023-05-10T08:09:00.933Z,54.00
2023-05-10T08:11:31.278Z,54.10
2023-05-10T08:14:00.854Z,53.00
2023-05-10T08:16:29.888Z,52.00
2023-05-10T08:19:01.016Z,53.30
2023-05-10T08:21:29.738Z,53.20
2023-05-10T08:24:00.738Z,53.70
2023-05-10T08:26:30.826Z,53.20
2023-05-10T08:29:01.506Z,53.60
2023-05-10T08:31:32.493Z,53.10
2023-05-10T08:34:03.464Z,53.20
2023-05-10T08:36:34.509Z,53.50
2023-05-10T08:39:03.260Z,52.50
2023-05-10T08:41:37.715Z,52.70
2023-05-10T08:44:08.096Z,53.00
2023-05-10T08:46:45.088Z,53.00
2023-05-10T08:49:19.140Z,52.80
2023-05-10T08:51:54.255Z,53.30
2023-05-10T08:54:25.488Z,52.40
2023-05-10T08:56:55.660Z,52.40
2023-05-10T08:59:25.058Z,53.00
2023-05-10T09:01:54.679Z,52.80
2023-05-10T09:04:26.510Z,52.50
2023-05-10T09:06:56.801Z,52.90
2023-05-10T09:09:27.367Z,52.00
2023-05-10T09:11:57.600Z,51.00
2023-05-10T09:14:28.882Z,51.00
2023-05-10T09:16:57.559Z,51.10
2023-05-10T09:19:26.196Z,50.70
2023-05-10T09:21:54.820Z,50.60
2023-05-10T09:24:29.013Z,49.50
2023-05-10T09:26:59.946Z,50.50
2023-05-10T09:29:41.968Z,49.50
2023-05-10T09:32:13.852Z,50.10
2023-05-10T09:34:43.372Z,50.00
2023-05-10T09:37:14.459Z,50.30
2023-05-10T09:39:43.245Z,50.80
2023-05-10T09:42:13.378Z,49.70
2023-05-10T09:44:44.492Z,49.30
2023-05-10T09:47:18.983Z,51.00
2023-05-10T09:49:57.139Z,50.40
2023-05-10T09:52:28.002Z,49.80
2023-05-10T09:54:57.385Z,49.70
2023-05-10T09:57:28.318Z,51.10
2023-05-10T10:00:02.472Z,49.20
2023-05-10T10:02:42.358Z,49.50
2023-05-10T10:05:11.880Z,49.40
2023-05-10T10:07:48.182Z,49.90
2023-05-10T10:10:17.071Z,49.70
2023-05-10T10:12:47.177Z,49.70
2023-05-10T10:15:16.833Z,49.70
2023-05-10T10:17:46.547Z,49.10
2023-05-10T10:20:15.749Z,49.30
2023-05-10T10:22:45.670Z,50.60
2023-05-10T10:25:17.337Z,50.00
2023-05-10T10:28:02.022Z,50.10
2023-05-10T10:30:39.188Z,49.30
2023-05-10T10:33:41.160Z,49.10
2023-05-10T10:36:09.959Z,49.00
2023-05-10T10:39:00.352Z,48.70
2023-05-10T10:41:37.474Z,49.30
2023-05-10T10:44:41.540Z,50.00
2023-05-10T10:47:30.969Z,49.40
2023-05-10T10:50:08.505Z,50.00
2023-05-10T10:52:38.456Z,49.70
2023-05-10T10:55:10.221Z,50.50
2023-05-10T10:57:52.644Z,49.50
2023-05-10T11:00:29.617Z,50.00
2023-05-10T11:03:01.466Z,49.60
2023-05-10T11:05:41.301Z,52.30
2023-05-10T11:08:17.926Z,50.40
2023-05-10T11:10:55.924Z,50.60
2023-05-10T11:13:32.332Z,50.30
2023-05-10T11:16:14.707Z,49.30
2023-05-10T11:18:54.167Z,49.20
2023-05-10T11:21:23.122Z,49.50
2023-05-10T11:23:57.536Z,50.50
2023-05-10T11:26:27.393Z,50.40
2023-05-10T11:29:02.967Z,50.80
2023-05-10T11:31:33.242Z,49.60
2023-05-10T11:34:03.386Z,49.70
2023-05-10T11:36:35.802Z,51.10
2023-05-10T11:39:05.766Z,50.10
2023-05-10T11:41:34.661Z,50.40
2023-05-10T11:44:03.953Z,50.30
2023-05-10T11:46:34.129Z,50.60
2023-05-10T11:49:05.752Z,50.20
2023-05-10T11:51:40.525Z,50.60
2023-05-10T11:54:11.800Z,50.00
2023-05-10T11:56:42.096Z,51.00
2023-05-10T11:59:11.135Z,50.30
2023-05-10T12:01:41.401Z,51.50
2023-05-10T12:04:12.694Z,52.50
2023-05-10T12:06:43.825Z,51.60
2023-05-10T12:09:12.646Z,52.40
2023-05-10T12:11:44.547Z,52.10
2023-05-10T12:14:16.503Z,51.60
2023-05-10T12:16:46.925Z,51.70
2023-05-10T12:19:20.493Z,51.00
2023-05-10T12:21:49.511Z,51.50
2023-05-10T12:24:19.010Z,50.90
2023-05-10T12:26:49.453Z,52.50
2023-05-10T12:29:19.655Z,52.80
2023-05-10T12:31:58.590Z,52.60
2023-05-10T12:34:34.921Z,52.80
2023-05-10T12:37:04.517Z,52.00
2023-05-10T12:39:43.455Z,52.80
2023-05-10T12:42:12.634Z,53.30
2023-05-10T12:44:41.938Z,53.00
2023-05-10T12:47:14.298Z,52.50
2023-05-10T12:49:43.293Z,52.70
2023-05-10T12:52:14.103Z,53.50
2023-05-10T12:54:44.814Z,53.70
2023-05-10T12:57:15.988Z,54.10
2023-05-10T12:59:44.893Z,53.90
2023-05-10T13:02:19.461Z,53.30
2023-05-10T13:04:49.622Z,54.10
2023-05-10T13:07:19.504Z,54.60
2023-05-10T13:09:48.069Z,55.30
2023-05-10T13:12:16.769Z,55.60
2023-05-10T13:14:45.531Z,56.10
2023-05-10T13:17:14.324Z,56.50
2023-05-10T13:19:44.639Z,57.10
2023-05-10T13:22:13.352Z,57.40
2023-05-10T13:24:42.034Z,57.70
2023-05-10T13:27:11.342Z,58.60
2023-05-10T13:29:40.007Z,58.20
2023-05-10T13:32:08.951Z,58.10
2023-05-10T13:34:39.869Z,58.80
2023-05-10T13:37:10.220Z,59.20
2023-05-10T13:39:39.056Z,59.20
2023-05-10T13:42:08.094Z,59.40
2023-05-10T13:44:39.890Z,59.50
2023-05-10T13:47:09.378Z,59.80
2023-05-10T13:49:38.124Z,60.80
2023-05-10T13:52:07.957Z,60.20
2023-05-10T13:54:38.128Z,60.00
2023-05-10T13:57:07.614Z,60.30
2023-05-10T13:59:36.661Z,60.60
2023-05-10T14:02:05.335Z,61.10
2023-05-10T14:04:36.774Z,61.40
2023-05-10T14:07:05.541Z,60.80
2023-05-10T14:09:34.176Z,61.80
2023-05-10T14:12:04.672Z,61.80
2023-05-10T14:14:33.474Z,61.80
2023-05-10T14:17:04.389Z,61.90
2023-05-10T14:19:35.297Z,62.00
2023-05-10T14:22:03.922Z,62.60
2023-05-10T14:24:32.697Z,62.90
2023-05-10T14:27:04.090Z,63.10
2023-05-10T14:29:34.288Z,63.90
2023-05-10T14:32:07.654Z,63.40
2023-05-10T14:34:36.416Z,63.60
2023-05-10T14:37:05.532Z,63.70
2023-05-10T14:39:37.857Z,63.90
2023-05-10T14:42:06.640Z,64.40
2023-05-10T14:44:36.947Z,65.30
2023-05-10T14:47:08.076Z,65.50
2023-05-10T14:49:37.507Z,65.90
2023-05-10T14:52:06.090Z,66.20
2023-05-10T14:54:35.332Z,66.80
2023-05-10T14:57:04.061Z,66.20
2023-05-10T14:59:32.650Z,66.00
2023-05-10T15:02:04.140Z,66.20
2023-05-10T15:04:33.278Z,66.00
2023-05-10T15:07:02.219Z,66.50
2023-05-10T15:09:30.911Z,65.40
2023-05-10T15:11:59.474Z,66.60
2023-05-10T15:14:31.458Z,67.40
2023-05-10T15:17:00.029Z,68.90
2023-05-10T15:19:30.694Z,71.00
2023-05-10T15:21:59.322Z,72.90
2023-05-10T15:24:28.496Z,74.60
2023-05-10T15:26:57.227Z,75.40
2023-05-10T15:29:25.858Z,76.60
2023-05-10T15:31:54.566Z,77.40
2023-05-10T15:34:23.206Z,78.00
2023-05-10T15:36:53.249Z,78.10
2023-05-10T15:39:21.824Z,78.40
2023-05-10T15:41:53.277Z,78.50
2023-05-10T15:44:21.916Z,78.70
2023-05-10T15:46:53.077Z,78.80
2023-05-10T15:49:24.536Z,78.90
2023-05-10T15:51:54.564Z,79.50
2023-05-10T15:54:23.261Z,79.80
2023-05-10T15:56:51.906Z,80.20
2023-05-10T15:59:20.560Z,80.60
2023-05-10T16:01:49.872Z,81.90
2023-05-10T16:04:18.501Z,82.70
2023-05-10T16:06:47.140Z,83.30
2023-05-10T16:09:19.487Z,83.70
2023-05-10T16:11:48.097Z,84.20
2023-05-10T16:14:17.336Z,84.90
2023-05-10T16:16:46.125Z,84.80
2023-05-10T16:19:17.959Z,85.30
2023-05-10T16:21:48.886Z,85.90
2023-05-10T16:24:18.888Z,85.70
2023-05-10T16:26:49.971Z,86.10
2023-05-10T16:29:19.162Z,86.10
2023-05-10T16:31:47.852Z,86.90
2023-05-10T16:34:16.435Z,88.30
2023-05-10T16:36:45.142Z,88.80
2023-05-10T16:39:13.998Z,89.10
2023-05-10T16:41:44.015Z,89.30
2023-05-10T16:44:12.751Z,89.40
2023-05-10T16:46:41.477Z,89.50
2023-05-10T16:49:14.069Z,89.40
2023-05-10T16:51:45.930Z,89.50
2023-05-10T16:54:14.605Z,89.70
2023-05-10T16:56:44.659Z,89.80
2023-05-10T16:59:13.212Z,90.10
2023-05-10T17:01:45.007Z,90.00
2023-05-10T17:04:14.194Z,90.00
2023-05-10T17:06:42.981Z,90.20
2023-05-10T17:09:12.159Z,90.60
2023-05-10T17:11:42.182Z,90.80
2023-05-10T17:14:12.408Z,91.40
2023-05-10T17:16:43.623Z,91.50
2023-05-10T17:19:14.517Z,91.70
2023-05-10T17:21:43.214Z,91.80
2023-05-10T17:24:12.008Z,92.30
2023-05-10T17:26:40.662Z,92.30
2023-05-10T17:29:11.066Z,92.40
2023-05-10T17:31:39.741Z,92.60
2023-05-10T17:34:08.439Z,92.50
2023-05-10T17:36:37.150Z,92.50
2023-05-10T17:39:06.215Z,92.30
2023-05-10T17:41:37.169Z,92.00
2023-05-10T17:44:05.784Z,91.90
2023-05-10T17:46:36.396Z,92.00
2023-05-10T17:49:05.021Z,92.30
2023-05-10T17:51:33.587Z,92.50
2023-05-10T17:54:02.331Z,92.30
2023-05-10T17:56:30.872Z,92.60
2023-05-10T17:58:59.513Z,92.80
2023-05-10T18:01:30.212Z,92.60
2023-05-10T18:04:00.241Z,92.90
2023-05-10T18:06:31.906Z,93.00
2023-05-10T18:09:07.491Z,93.10
2023-05-10T18:11:38.654Z,93.10
2023-05-10T18:14:07.230Z,93.40
2023-05-10T18:16:35.946Z,93.80
2023-05-10T18:19:06.070Z,93.80
2023-05-10T18:21:34.728Z,93.70
2023-05-10T18:24:06.350Z,93.70
2023-05-10T18:26:34.886Z,93.70
2023-05-10T18:29:03.490Z,93.70
2023-05-10T18:31:32.111Z,93.80
2023-05-10T18:34:00.648Z,93.80
2023-05-10T18:36:30.664Z,94.10
2023-05-10T18:39:01.672Z,94.30
2023-05-10T18:41:30.202Z,94.50
2023-05-10T18:43:58.763Z,94.50
2023-05-10T18:46:27.307Z,94.70
2023-05-10T18:48:58.098Z,95.10
2023-05-10T18:51:28.997Z,95.00
2023-05-10T18:53:59.007Z,95.00
2023-05-10T18:56:27.560Z,95.10
2023-05-10T18:58:58.608Z,95.10
2023-05-10T19:01:27.209Z,95.70
2023-05-10T19:03:57.806Z,95.90
2023-05-10T19:06:28.715Z,96.20
2023-05-10T19:08:58.636Z,96.10
2023-05-10T19:11:27.129Z,96.00
2023-05-10T19:13:55.674Z,96.00
2023-05-10T19:16:24.362Z,96.30
2023-05-10T19:18:52.993Z,96.20
2023-05-10T19:21:21.561Z,96.10
2023-05-10T19:23:50.296Z,96.10
2023-05-10T19:26:20.772Z,96.20
2023-05-10T19:28:51.640Z,96.30
2023-05-10T19:31:23.406Z,96.50
2023-05-10T19:33:53.004Z,96.40
2023-05-10T19:36:21.626Z,96.40
2023-05-10T19:38:52.362Z,96.50
2023-05-10T19:41:22.758Z,96.60
2023-05-10T19:43:53.446Z,96.70
2023-05-10T19:46:22.044Z,97.00
2023-05-10T19:48:51.278Z,97.00
2023-05-10T19:51:19.841Z,96.80
2023-05-10T19:53:48.416Z,97.20
2023-05-10T19:56:18.449Z,97.30
2023-05-10T19:58:48.434Z,97.20
2023-05-10T20:01:17.031Z,97.10
2023-05-10T20:03:45.710Z,97.50
2023-05-10T20:06:14.303Z,97.50
2023-05-10T20:08:45.210Z,97.40
2023-05-10T20:11:16.200Z,97.50
2023-05-10T20:13:44.801Z,97.60
2023-05-10T20:16:16.989Z,97.60
2023-05-10T20:18:48.614Z,97.80
2023-05-10T20:21:17.271Z,97.70
2023-05-10T20:23:45.869Z,97.80
2023-05-10T20:26:16.102Z,97.90
2023-05-10T20:28:44.673Z,98.00
2023-05-10T20:31:13.329Z,98.00
2023-05-10T20:33:50.628Z,98.00
2023-05-10T20:36:19.280Z,98.00
2023-05-10T20:38:47.934Z,98.20
2023-05-10T20:41:16.595Z,98.30
2023-05-10T20:43:45.234Z,98.30
2023-05-10T20:46:14.073Z,98.30
2023-05-10T20:48:42.696Z,98.20
2023-05-10T20:51:12.711Z,98.20
2023-05-10T20:53:41.394Z,98.30
2023-05-10T20:56:10.267Z,98.40
2023-05-10T20:58:38.830Z,98.40
2023-05-10T21:01:07.557Z,98.70
2023-05-10T21:03:36.390Z,98.90
2023-05-10T21:06:05.689Z,98.90
2023-05-10T21:08:35.911Z,99.30
2023-05-10T21:11:05.796Z,99.50
2023-05-10T21:13:36.740Z,99.30
2023-05-10T21:16:06.741Z,99.20
2023-05-10T21:18:36.026Z,99.40
2023-05-10T21:21:05.014Z,99.60
2023-05-10T21:23:35.046Z,99.40
2023-05-10T21:26:06.479Z,99.40
2023-05-10T21:28:35.226Z,99.20
2023-05-10T21:31:03.852Z,99.20
2023-05-10T21:33:32.433Z,99.30
2023-05-10T21:36:01.282Z,99.40
2023-05-10T21:38:30.024Z,99.40
2023-05-10T21:40:59.967Z,99.40
2023-05-10T21:43:28.751Z,99.80
2023-05-10T21:45:57.331Z,99.70
2023-05-10T21:48:26.111Z,99.90
2023-05-10T21:50:54.713Z,99.80
2023-05-10T21:53:23.457Z,99.90
2023-05-10T21:55:52.185Z,99.90
2023-05-10T21:58:22.399Z,99.90
2023-05-10T22:00:51.089Z,99.90
2023-05-10T22:03:21.925Z,99.90
2023-05-10T22:05:50.684Z,99.90
2023-05-10T22:08:19.498Z,99.90
2023-05-10T22:10:48.094Z,99.90
2023-05-10T22:13:16.862Z,99.90
2023-05-10T22:15:46.984Z,99.90
2023-05-10T22:18:15.820Z,99.90
2023-05-10T22:20:46.597Z,99.90
2023-05-10T22:23:15.414Z,99.90
2023-05-10T22:25:44.297Z,99.90
2023-05-10T22:28:12.926Z,99.90
2023-05-10T22:30:43.419Z,99.90
2023-05-10T22:33:13.655Z,99.90
2023-05-10T22:35:44.602Z,99.90
2023-05-10T22:38:13.354Z,99.90
2023-05-10T22:40:42.944Z,99.90
2023-05-10T22:43:12.031Z,99.90
2023-05-10T22:45:40.576Z,99.90
2023-05-10T22:48:12.118Z,99.90
2023-05-10T22:50:40.665Z,99.90
2023-05-10T22:53:11.650Z,99.90
2023-05-10T22:55:40.231Z,99.90
2023-05-10T22:58:08.870Z,99.90
2023-05-10T23:00:37.557Z,99.90
2023-05-10T23:03:07.438Z,99.90
2023-05-10T23:05:37.503Z,99.90
2023-05-10T23:08:06.519Z,99.90
2023-05-10T23:10:37.493Z,99.90
2023-05-10T23:13:06.424Z,99.90
2023-05-10T23:15:36.237Z,99.90
2023-05-10T23:18:06.061Z,99.90
2023-05-10T23:20:36.207Z,99.90
2023-05-10T23:23:04.885Z,99.90
2023-05-10T23:25:33.526Z,99.90
2023-05-10T23:28:02.229Z,99.90
2023-05-10T23:30:32.347Z,99.90
2023-05-10T23:33:01.136Z,99.90
2023-05-10T23:35:29.730Z,99.90
2023-05-10T23:37:59.711Z,99.90
2023-05-10T23:40:30.769Z,99.90
2023-05-10T23:42:59.309Z,99.90
2023-05-10T23:45:27.998Z,99.90
2023-05-10T23:47:56.768Z,99.90
2023-05-10T23:50:25.425Z,99.90
2023-05-10T23:52:54.170Z,99.90
2023-05-10T23:55:24.165Z,99.90
2023-05-10T23:57:52.863Z,99.90
